createdAt,value
2018-09-14T00:00:50.863Z,16.40
2018-09-14T00:03:21.993Z,16.40
2018-09-14T00:05:51.922Z,16.40
2018-09-14T00:08:21.875Z,16.40
2018-09-14T00:10:50.829Z,16.40
2018-09-14T00:22:01.413Z,16.40
2018-09-14T00:24:30.648Z,16.30
2018-09-14T00:26:59.873Z,16.20
2018-09-14T00:29:29.174Z,16.30
2018-09-14T00:31:58.401Z,16.20
2018-09-14T00:34:27.653Z,16.20
2018-09-14T00:36:56.608Z,16.30
2018-09-14T00:39:25.583Z,16.20
2018-09-14T00:41:54.770Z,16.10
2018-09-14T00:44:23.958Z,16.20
2018-09-14T00:46:53.165Z,16.10
2018-09-14T00:49:22.444Z,16.20
2018-09-14T00:51:51.416Z,16.10
2018-09-14T00:54:20.687Z,16.20
2018-09-14T00:56:49.910Z,16.10
2018-09-14T00:59:19.135Z,16.10
2018-09-14T01:01:48.338Z,16.20
2018-09-14T01:04:17.563Z,16.10
2018-09-14T01:06:46.520Z,16.20
2018-09-14T01:11:57.508Z,16.10
2018-09-14T01:14:27.883Z,16.10
2018-09-14T01:16:57.918Z,16.10
2018-09-14T01:19:27.834Z,16.10
2018-09-14T01:21:57.066Z,16.10
2018-09-14T01:24:26.248Z,16.20
2018-09-14T01:26:55.468Z,16.10
2018-09-14T01:29:24.661Z,16.10
2018-09-14T01:31:53.865Z,16.10
2018-09-14T01:34:22.821Z,16.20
2018-09-14T01:36:51.760Z,16.10
2018-09-14T01:39:20.715Z,16.20
2018-09-14T01:41:49.915Z,16.10
2018-09-14T01:44:19.128Z,16.10
2018-09-14T01:46:48.387Z,16.10
2018-09-14T01:49:17.593Z,16.10
2018-09-14T01:51:46.874Z,16.10
2018-09-14T01:54:15.856Z,16.10
2018-09-14T01:56:45.046Z,16.10
2018-09-14T01:59:14.192Z,16.20
2018-09-14T02:01:43.148Z,16.20
2018-09-14T02:04:12.087Z,16.20
2018-09-14T02:06:41.052Z,16.30
2018-09-14T02:09:11.381Z,16.20
2018-09-14T02:11:40.570Z,16.20
2018-09-14T02:14:09.828Z,16.20
2018-09-14T02:16:38.869Z,16.20
2018-09-14T02:19:08.110Z,16.10
2018-09-14T02:21:43.532Z,16.10
2018-09-14T02:24:12.789Z,16.10
2018-09-14T02:26:42.051Z,16.00
2018-09-14T02:29:11.334Z,16.00
2018-09-14T02:31:40.268Z,15.90
2018-09-14T02:34:09.513Z,15.90
2018-09-14T02:36:38.708Z,15.90
2018-09-14T02:39:08.310Z,15.80
2018-09-14T02:41:37.343Z,15.90
2018-09-14T02:44:06.540Z,15.80
2018-09-14T02:46:35.540Z,15.90
2018-09-14T02:49:04.719Z,15.80
2018-09-14T02:51:33.957Z,15.80
2018-09-14T02:54:03.188Z,15.80
2018-09-14T02:56:32.481Z,15.70
2018-09-14T02:59:01.484Z,15.80
2018-09-14T03:01:30.694Z,15.70
2018-09-14T03:03:59.935Z,15.70
2018-09-14T03:06:28.908Z,15.70
2018-09-14T03:08:58.192Z,15.70
2018-09-14T03:11:27.148Z,15.80
2018-09-14T03:13:56.453Z,15.70
2018-09-14T03:16:25.413Z,15.90
2018-09-14T03:18:54.636Z,15.70
2018-09-14T03:21:23.875Z,15.70
2018-09-14T03:23:52.897Z,15.70
2018-09-14T03:26:22.205Z,15.60
2018-09-14T03:28:51.474Z,15.60
2018-09-14T03:31:20.799Z,15.60
2018-09-14T03:33:50.016Z,15.60
2018-09-14T03:36:18.958Z,15.60
2018-09-14T03:38:48.180Z,15.60
2018-09-14T03:41:17.172Z,15.60
2018-09-14T03:43:46.456Z,15.60
2018-09-14T03:46:15.439Z,15.70
2018-09-14T03:48:44.434Z,15.60
2018-09-14T03:51:13.662Z,15.50
2018-09-14T03:53:42.868Z,15.60
2018-09-14T03:56:12.142Z,15.60
2018-09-14T03:58:41.336Z,15.60
2018-09-14T04:01:10.546Z,15.60
2018-09-14T04:03:39.810Z,15.60
2018-09-14T04:06:08.812Z,15.60
2018-09-14T04:08:38.028Z,15.50
2018-09-14T04:11:06.980Z,15.70
2018-09-14T04:13:36.246Z,15.60
2018-09-14T04:16:05.498Z,15.60
2018-09-14T04:18:34.735Z,15.60
2018-09-14T04:21:03.975Z,15.50
2018-09-14T04:23:33.194Z,15.60
2018-09-14T04:26:02.450Z,15.60
2018-09-14T04:28:31.631Z,15.60
2018-09-14T04:31:00.941Z,15.50
2018-09-14T04:33:30.741Z,15.50
2018-09-14T04:35:59.763Z,15.60
2018-09-14T04:38:28.725Z,15.60
2018-09-14T04:40:57.689Z,15.60
2018-09-14T04:43:26.914Z,15.60
2018-09-14T04:45:55.840Z,15.60
2018-09-14T04:48:25.068Z,15.60
2018-09-14T04:50:54.272Z,15.60
2018-09-14T04:53:23.735Z,15.60
2018-09-14T04:55:53.008Z,15.50
2018-09-14T04:58:22.269Z,15.40
2018-09-14T05:00:51.477Z,15.50
2018-09-14T05:03:20.462Z,15.50
2018-09-14T05:05:49.406Z,15.40
2018-09-14T05:08:18.753Z,15.40
2018-09-14T05:10:47.957Z,15.40
2018-09-14T05:13:16.996Z,15.40
2018-09-14T05:15:46.300Z,15.40
2018-09-14T05:18:15.512Z,15.30
2018-09-14T05:20:44.847Z,15.30
2018-09-14T05:23:14.016Z,15.10
2018-09-14T05:25:46.228Z,15.10
2018-09-14T05:28:15.617Z,14.90
2018-09-14T05:30:44.805Z,14.90
2018-09-14T05:33:14.099Z,14.90
2018-09-14T05:35:43.291Z,14.90
2018-09-14T05:38:12.239Z,14.90
2018-09-14T05:40:41.611Z,15.00
2018-09-14T05:43:10.857Z,15.10
2018-09-14T05:45:40.078Z,15.20
2018-09-14T05:48:09.261Z,15.20
2018-09-14T05:50:38.509Z,15.30
2018-09-14T05:53:07.757Z,15.30
2018-09-14T05:55:36.973Z,15.40
2018-09-14T05:58:06.415Z,15.40
2018-09-14T06:00:35.465Z,15.40
2018-09-14T06:03:04.417Z,15.50
2018-09-14T06:05:33.333Z,15.40
2018-09-14T06:08:02.566Z,15.40
2018-09-14T06:10:31.755Z,15.50
2018-09-14T06:13:00.798Z,15.60
2018-09-14T06:15:30.052Z,15.50
2018-09-14T06:21:08.358Z,15.70
2018-09-14T06:23:37.564Z,15.80
2018-09-14T06:26:06.851Z,15.80
2018-09-14T06:28:36.045Z,15.90
2018-09-14T06:31:05.278Z,15.90
2018-09-14T06:33:34.285Z,15.80
2018-09-14T06:36:03.293Z,15.90
2018-09-14T06:38:32.481Z,16.00
2018-09-14T06:41:01.733Z,16.00
2018-09-14T06:43:30.666Z,16.00
2018-09-14T06:45:59.876Z,15.90
2018-09-14T06:48:28.870Z,16.00
2018-09-14T06:50:58.131Z,15.90
2018-09-14T06:53:27.184Z,16.10
2018-09-14T06:55:56.340Z,16.10
2018-09-14T06:58:25.814Z,16.10
2018-09-14T07:00:55.095Z,16.20
2018-09-14T07:03:24.297Z,16.20
2018-09-14T07:05:53.659Z,16.10
2018-09-14T07:08:22.947Z,16.10
2018-09-14T07:10:51.993Z,16.20
2018-09-14T07:13:21.064Z,16.30
2018-09-14T07:15:50.242Z,16.30
2018-09-14T07:18:19.399Z,16.40
2018-09-14T07:20:48.653Z,16.50
2018-09-14T07:23:17.857Z,16.50
2018-09-14T07:25:47.146Z,16.50
2018-09-14T07:28:16.147Z,16.50
2018-09-14T07:30:45.591Z,16.50
2018-09-14T07:33:14.516Z,16.60
2018-09-14T07:35:43.689Z,16.60
2018-09-14T07:38:12.716Z,16.70
2018-09-14T07:40:47.874Z,16.80
2018-09-14T07:43:16.874Z,16.80
2018-09-14T07:45:46.303Z,16.80
2018-09-14T07:48:15.521Z,16.90
2018-09-14T07:50:44.929Z,16.90
2018-09-14T07:53:14.100Z,16.90
2018-09-14T07:55:43.062Z,16.90
2018-09-14T07:58:12.035Z,16.80
2018-09-14T08:00:41.255Z,16.70
2018-09-14T08:03:10.251Z,16.80
2018-09-14T08:05:39.523Z,16.80
2018-09-14T08:08:08.775Z,16.70
2018-09-14T08:10:37.720Z,16.80
2018-09-14T08:13:07.067Z,16.60
2018-09-14T08:15:36.361Z,16.80
2018-09-14T08:18:05.935Z,17.00
2018-09-14T08:20:34.893Z,17.20
2018-09-14T08:23:04.129Z,17.20
2018-09-14T08:25:33.328Z,17.40
2018-09-14T08:28:02.553Z,17.60
2018-09-14T08:30:31.561Z,17.90
2018-09-14T08:33:00.525Z,18.00
2018-09-14T08:35:29.834Z,18.10
2018-09-14T08:37:58.819Z,17.90
2018-09-14T08:40:28.479Z,17.80
2018-09-14T08:42:57.735Z,17.90
2018-09-14T08:45:26.688Z,18.00
2018-09-14T08:47:55.780Z,18.10
2018-09-14T08:50:24.926Z,18.30
2018-09-14T08:52:54.132Z,18.20
2018-09-14T08:55:23.329Z,18.20
2018-09-14T08:57:52.645Z,18.20
2018-09-14T09:00:22.063Z,18.20
2018-09-14T09:02:51.685Z,18.20
2018-09-14T09:05:20.614Z,18.30
2018-09-14T09:07:50.271Z,18.20
2018-09-14T09:10:19.558Z,18.40
2018-09-14T09:12:49.108Z,18.50
2018-09-14T09:15:18.379Z,18.30
2018-09-14T09:17:47.688Z,18.50
2018-09-14T09:20:16.893Z,18.50
2018-09-14T09:22:46.108Z,18.70
2018-09-14T09:25:15.353Z,18.80
2018-09-14T09:27:44.539Z,18.90
2018-09-14T09:30:13.731Z,18.90
2018-09-14T09:32:42.915Z,18.70
2018-09-14T09:35:12.168Z,18.70
2018-09-14T09:37:41.416Z,18.50
2018-09-14T09:40:10.626Z,18.50
2018-09-14T09:42:39.841Z,18.30
2018-09-14T09:45:09.346Z,18.30
2018-09-14T09:47:38.805Z,18.30
2018-09-14T09:50:08.372Z,18.30
2018-09-14T09:52:37.875Z,18.30
2018-09-14T09:55:07.601Z,18.20
2018-09-14T09:57:36.839Z,18.20
2018-09-14T10:00:08.888Z,18.30
2018-09-14T10:02:39.188Z,18.30
2018-09-14T10:05:13.649Z,18.30
2018-09-14T10:07:42.650Z,18.40
2018-09-14T10:10:13.139Z,18.30
2018-09-14T10:12:42.380Z,18.40
2018-09-14T10:15:11.593Z,18.50
2018-09-14T10:17:40.811Z,18.50
2018-09-14T10:20:10.086Z,18.50
2018-09-14T10:22:39.285Z,18.60
2018-09-14T10:25:08.294Z,18.40
2018-09-14T10:27:37.231Z,18.50
2018-09-14T10:30:06.155Z,18.50
2018-09-14T10:32:35.145Z,18.60
2018-09-14T10:35:04.146Z,18.60
2018-09-14T10:37:33.120Z,18.50
2018-09-14T10:40:02.364Z,18.60
2018-09-14T10:42:31.383Z,18.90
2018-09-14T10:45:00.546Z,19.00
2018-09-14T10:47:29.634Z,19.30
2018-09-14T10:49:58.590Z,19.40
2018-09-14T10:52:27.801Z,19.50
2018-09-14T10:54:57.014Z,19.60
2018-09-14T10:57:26.226Z,19.60
2018-09-14T10:59:55.432Z,19.70
2018-09-14T11:02:24.380Z,19.30
2018-09-14T11:04:53.726Z,19.40
2018-09-14T11:07:22.801Z,19.50
2018-09-14T11:09:52.034Z,19.40
2018-09-14T11:12:21.301Z,19.40
2018-09-14T11:14:50.562Z,19.30
2018-09-14T11:17:19.784Z,19.40
2018-09-14T11:19:48.948Z,19.60
2018-09-14T11:22:18.130Z,19.60
2018-09-14T11:24:47.207Z,19.70
2018-09-14T11:27:16.056Z,19.80
2018-09-14T11:29:45.265Z,19.70
2018-09-14T11:32:14.556Z,19.60
2018-09-14T11:34:43.839Z,19.60
2018-09-14T11:37:12.846Z,19.60
2018-09-14T11:39:42.052Z,19.60
2018-09-14T11:42:11.037Z,19.40
2018-09-14T11:44:40.303Z,19.60
2018-09-14T11:47:09.324Z,19.60
2018-09-14T11:49:38.622Z,19.60
2018-09-14T11:52:07.559Z,19.70
2018-09-14T11:54:36.496Z,19.80
2018-09-14T11:57:05.795Z,19.70
2018-09-14T11:59:35.029Z,19.60
2018-09-14T12:02:03.986Z,19.80
2018-09-14T12:04:33.143Z,19.70
2018-09-14T12:07:02.347Z,19.80
2018-09-14T12:09:31.960Z,19.90
2018-09-14T12:12:01.047Z,19.90
2018-09-14T12:14:30.169Z,19.80
2018-09-14T12:16:59.144Z,19.80
2018-09-14T12:19:28.429Z,19.90
2018-09-14T12:21:57.652Z,19.90
2018-09-14T12:24:26.823Z,19.90
2018-09-14T12:26:56.024Z,19.90
2018-09-14T12:29:25.290Z,19.90
2018-09-14T12:31:54.489Z,20.00
2018-09-14T12:34:23.491Z,20.00
2018-09-14T12:36:52.740Z,20.00
2018-09-14T12:39:21.687Z,20.10
2018-09-14T12:41:50.962Z,20.00
2018-09-14T12:44:19.911Z,20.10
2018-09-14T12:46:49.182Z,20.20
2018-09-14T12:49:24.794Z,20.20
2018-09-14T12:51:53.774Z,20.20
2018-09-14T12:54:22.985Z,20.30
2018-09-14T12:56:52.223Z,20.20
2018-09-14T12:59:21.389Z,20.20
2018-09-14T13:01:50.401Z,20.30
2018-09-14T13:04:19.645Z,20.30
2018-09-14T13:06:48.653Z,20.10
2018-09-14T13:09:17.878Z,20.20
2018-09-14T13:11:46.835Z,20.30
2018-09-14T13:14:19.567Z,20.20
2018-09-14T13:16:49.270Z,20.20
2018-09-14T13:19:18.549Z,20.20
2018-09-14T13:21:47.873Z,20.30
2018-09-14T13:24:17.472Z,20.30
2018-09-14T13:26:46.639Z,20.30
2018-09-14T13:29:15.633Z,20.40
2018-09-14T13:31:44.840Z,20.40
2018-09-14T13:34:14.325Z,20.60
2018-09-14T13:36:43.615Z,20.50
2018-09-14T13:39:12.914Z,20.50
2018-09-14T13:41:42.101Z,20.30
2018-09-14T13:44:11.293Z,20.10
2018-09-14T13:46:40.921Z,20.00
2018-09-14T13:49:10.297Z,20.00
2018-09-14T13:51:39.719Z,20.10
2018-09-14T13:54:09.404Z,20.10
2018-09-14T13:56:38.712Z,20.20
2018-09-14T13:59:07.875Z,20.30
2018-09-14T14:01:37.161Z,20.30
2018-09-14T14:04:06.376Z,20.30
2018-09-14T14:06:35.632Z,20.30
2018-09-14T14:09:07.414Z,20.10
2018-09-14T14:11:36.677Z,20.10
2018-09-14T14:14:05.945Z,20.30
2018-09-14T14:16:35.042Z,20.40
2018-09-14T14:19:04.523Z,20.30
2018-09-14T14:21:33.714Z,20.20
2018-09-14T14:24:03.055Z,20.00
2018-09-14T14:26:32.625Z,20.00
2018-09-14T14:29:01.968Z,20.20
2018-09-14T14:31:31.351Z,20.40
2018-09-14T14:34:00.314Z,20.30
2018-09-14T14:36:29.571Z,20.20
2018-09-14T14:38:58.528Z,20.30
2018-09-14T14:41:27.891Z,20.10
2018-09-14T14:43:57.851Z,20.00
2018-09-14T14:46:27.492Z,19.80
2018-09-14T14:48:56.727Z,19.70
2018-09-14T14:51:26.013Z,19.70
2018-09-14T14:53:55.273Z,19.80
2018-09-14T14:56:24.521Z,19.80
2018-09-14T14:58:53.753Z,19.80
2018-09-14T15:01:22.944Z,19.80
2018-09-14T15:03:51.969Z,19.80
2018-09-14T15:06:21.003Z,19.80
2018-09-14T15:08:50.727Z,19.70
2018-09-14T15:11:19.934Z,19.90
2018-09-14T15:13:49.129Z,19.90
2018-09-14T15:16:18.126Z,19.90
2018-09-14T15:18:47.961Z,19.80
2018-09-14T15:21:17.267Z,19.80
2018-09-14T15:23:46.263Z,19.90
2018-09-14T15:26:15.984Z,19.80
2018-09-14T15:28:45.271Z,19.80
2018-09-14T15:31:14.301Z,19.70
2018-09-14T15:33:43.564Z,19.80
2018-09-14T15:36:12.491Z,19.80
2018-09-14T15:38:41.739Z,19.80
2018-09-14T15:41:10.678Z,19.90
2018-09-14T15:43:39.951Z,19.80
2018-09-14T15:46:08.932Z,19.90
2018-09-14T15:48:38.166Z,19.90
2018-09-14T15:51:07.445Z,19.90
2018-09-14T15:53:36.664Z,19.90
2018-09-14T15:56:06.048Z,19.90
2018-09-14T15:58:35.092Z,19.90
2018-09-14T16:01:04.354Z,19.80
2018-09-14T16:03:33.734Z,19.80
2018-09-14T16:06:02.721Z,19.80
2018-09-14T16:08:31.703Z,19.90
2018-09-14T16:11:01.006Z,19.80
2018-09-14T16:13:30.401Z,19.70
2018-09-14T16:15:59.413Z,19.80
2018-09-14T16:18:28.630Z,19.70
2018-09-14T16:20:57.859Z,19.70
2018-09-14T16:23:26.931Z,19.70
2018-09-14T16:25:56.270Z,19.60
2018-09-14T16:28:25.589Z,19.60
2018-09-14T16:30:54.548Z,19.60
2018-09-14T16:33:23.940Z,19.60
2018-09-14T16:35:53.164Z,19.60
2018-09-14T16:38:22.220Z,19.50
2018-09-14T16:40:51.213Z,19.40
2018-09-14T16:43:21.074Z,19.30
2018-09-14T16:45:50.353Z,19.30
2018-09-14T16:48:19.508Z,19.20
2018-09-14T16:50:48.788Z,19.20
2018-09-14T16:53:18.042Z,19.10
2018-09-14T16:55:47.290Z,19.10
2018-09-14T16:58:16.501Z,19.00
2018-09-14T17:00:45.452Z,19.00
2018-09-14T17:03:14.477Z,19.00
2018-09-14T17:05:43.717Z,18.90
2018-09-14T17:08:12.723Z,18.90
2018-09-14T17:10:42.106Z,18.80
2018-09-14T17:13:12.070Z,18.90
2018-09-14T17:15:41.280Z,18.80
2018-09-14T17:18:10.298Z,18.80
2018-09-14T17:20:39.496Z,18.80
2018-09-14T17:23:08.505Z,18.80
2018-09-14T17:25:37.750Z,18.70
2018-09-14T17:28:07.233Z,18.70
2018-09-14T17:30:36.428Z,18.70
2018-09-14T17:33:05.399Z,18.60
2018-09-14T17:35:34.401Z,18.60
2018-09-14T17:38:03.649Z,18.50
2018-09-14T17:40:33.480Z,18.40
2018-09-14T17:43:02.505Z,18.40
2018-09-14T17:45:31.726Z,18.40
2018-09-14T17:48:00.912Z,18.40
2018-09-14T17:50:30.136Z,18.40
2018-09-14T17:52:59.099Z,18.40
2018-09-14T17:55:28.347Z,18.40
2018-09-14T17:57:57.722Z,18.30
2018-09-14T18:00:27.394Z,18.20
2018-09-14T18:02:56.518Z,18.20
2018-09-14T18:05:25.848Z,18.10
2018-09-14T18:07:54.959Z,18.10
2018-09-14T18:10:24.265Z,18.10
2018-09-14T18:12:53.693Z,18.00
2018-09-14T18:15:22.823Z,18.10
2018-09-14T18:17:52.199Z,18.00
2018-09-14T18:20:21.713Z,17.90
2018-09-14T18:22:51.276Z,17.80
2018-09-14T18:25:20.498Z,17.80
2018-09-14T18:27:50.253Z,17.80
2018-09-14T18:30:19.435Z,17.80
2018-09-14T18:32:48.623Z,17.90
2018-09-14T18:35:18.347Z,17.80
2018-09-14T18:37:47.967Z,17.80
2018-09-14T18:40:17.158Z,17.80
2018-09-14T18:42:46.895Z,17.70
2018-09-14T18:45:16.216Z,17.80
2018-09-14T18:47:45.246Z,17.70
2018-09-14T18:50:14.641Z,17.70
2018-09-14T18:52:44.665Z,17.70
2018-09-14T18:55:14.172Z,17.60
2018-09-14T18:57:43.599Z,17.60
2018-09-14T19:00:12.749Z,17.60
2018-09-14T19:02:42.236Z,17.60
2018-09-14T19:05:11.687Z,17.60
2018-09-14T19:07:40.862Z,17.70
2018-09-14T19:10:10.765Z,17.70
2018-09-14T19:12:40.231Z,17.80
2018-09-14T19:15:09.204Z,17.90
2018-09-14T19:17:38.513Z,17.90
2018-09-14T19:20:07.738Z,18.00
2018-09-14T19:22:37.822Z,18.00
2018-09-14T19:25:07.282Z,18.00
2018-09-14T19:27:36.896Z,18.00
2018-09-14T19:30:06.638Z,18.00
2018-09-14T19:32:35.891Z,18.00
2018-09-14T19:35:04.914Z,18.00
2018-09-14T19:37:34.141Z,17.90
2018-09-14T19:40:03.163Z,17.90
2018-09-14T19:42:32.548Z,17.80
2018-09-14T19:45:01.642Z,17.80
2018-09-14T19:47:31.117Z,17.70
2018-09-14T19:50:00.423Z,17.70
2018-09-14T19:52:29.520Z,17.70
2018-09-14T19:54:59.457Z,17.50
2018-09-14T19:57:29.003Z,17.50
2018-09-14T19:59:58.166Z,17.50
2018-09-14T20:02:27.420Z,17.40
2018-09-14T20:04:56.398Z,17.40
2018-09-14T20:07:25.649Z,17.30
2018-09-14T20:09:54.867Z,17.30
2018-09-14T20:12:24.038Z,17.30
2018-09-14T20:14:53.055Z,17.40
2018-09-14T20:17:22.077Z,17.40
2018-09-14T20:19:51.367Z,17.30
2018-09-14T20:22:20.465Z,17.40
2018-09-14T20:24:50.090Z,17.30
2018-09-14T20:27:19.502Z,17.30
2018-09-14T20:29:49.166Z,17.30
2018-09-14T20:32:18.159Z,17.30
2018-09-14T20:34:47.210Z,17.30
2018-09-14T20:37:16.512Z,17.20
2018-09-14T20:39:45.693Z,17.20
2018-09-14T20:42:14.900Z,17.20
2018-09-14T20:44:44.116Z,17.20
2018-09-14T20:47:13.291Z,17.20
2018-09-14T20:49:42.571Z,17.20
2018-09-14T20:52:11.792Z,17.20
2018-09-14T20:54:40.789Z,17.20
2018-09-14T20:57:09.993Z,17.00
2018-09-14T20:59:39.223Z,17.10
2018-09-14T21:02:08.417Z,17.00
2018-09-14T21:04:37.668Z,17.00
2018-09-14T21:07:06.783Z,17.10
2018-09-14T21:09:35.996Z,17.00
2018-09-14T21:12:04.928Z,17.00
2018-09-14T21:14:34.187Z,16.90
2018-09-14T21:17:03.118Z,16.90
2018-09-14T21:19:32.397Z,16.80
2018-09-14T21:22:01.575Z,16.80
2018-09-14T21:24:30.747Z,16.70
2018-09-14T21:27:00.035Z,16.70
2018-09-14T21:29:29.337Z,16.70
2018-09-14T21:31:58.678Z,16.70
2018-09-14T21:34:28.380Z,16.60
2018-09-14T21:36:57.636Z,16.60
2018-09-14T21:39:26.848Z,16.50
2018-09-14T21:41:56.034Z,16.50
2018-09-14T21:44:25.264Z,16.40
2018-09-14T21:46:54.527Z,16.40
2018-09-14T21:49:23.796Z,16.40
2018-09-14T21:51:53.015Z,16.40
2018-09-14T21:54:22.403Z,16.40
2018-09-14T21:56:51.650Z,16.40
2018-09-14T21:59:20.963Z,16.40
2018-09-14T22:01:50.211Z,16.40
2018-09-14T22:04:25.424Z,16.50
2018-09-14T22:06:54.355Z,16.60
2018-09-14T22:09:23.565Z,16.60
2018-09-14T22:11:52.828Z,16.60
2018-09-14T22:14:22.016Z,16.70
2018-09-14T22:16:51.041Z,16.80
2018-09-14T22:19:19.958Z,16.80
2018-09-14T22:21:49.288Z,16.80
2018-09-14T22:24:18.473Z,16.90
2018-09-14T22:26:47.697Z,16.90
2018-09-14T22:29:17.023Z,16.90
2018-09-14T22:31:46.080Z,17.00
2018-09-14T22:34:15.039Z,17.00
2018-09-14T22:36:44.224Z,17.00
2018-09-14T22:39:13.866Z,17.00
2018-09-14T22:41:43.053Z,16.80
2018-09-14T22:44:12.224Z,16.70
2018-09-14T22:46:41.174Z,16.80
2018-09-14T22:49:10.409Z,16.70
2018-09-14T22:51:39.480Z,16.80
2018-09-14T22:54:08.855Z,16.70
2018-09-14T22:56:38.268Z,16.70
2018-09-14T22:59:07.399Z,16.80
2018-09-14T23:01:37.639Z,16.70
2018-09-14T23:04:06.636Z,16.70
2018-09-14T23:06:35.856Z,16.60
2018-09-14T23:09:06.649Z,16.70
2018-09-14T23:11:35.833Z,16.70
2018-09-14T23:14:05.272Z,16.70
2018-09-14T23:16:34.455Z,16.70
2018-09-14T23:19:03.667Z,16.70
2018-09-14T23:21:32.874Z,16.70
2018-09-14T23:24:02.056Z,16.70
2018-09-14T23:26:31.261Z,16.70
2018-09-14T23:29:00.453Z,16.70
2018-09-14T23:31:29.735Z,16.70
2018-09-14T23:33:58.687Z,16.70
2018-09-14T23:36:27.930Z,16.70
2018-09-14T23:38:56.944Z,16.80
2018-09-14T23:41:26.142Z,16.60
2018-09-14T23:43:55.164Z,16.60
2018-09-14T23:46:24.400Z,16.50
2018-09-14T23:48:53.670Z,16.50
2018-09-14T23:51:25.890Z,16.50
2018-09-14T23:53:55.149Z,16.50
2018-09-14T23:56:24.469Z,16.50
2018-09-14T23:58:53.723Z,16.50
